Time;durP1;ratioP1;P1;durP2;ratioP2;P2;SDS_P1;SDS_P2;PMS_P1;PMS_P2;Temp;Humidity;BMP_temperature;BMP_pressure;BME280_temperature;BME280_humidity;BME280_pressure;Samples;Min_cycle;Max_cycle;Signal;HPM_P1;HPM_P2
2021/12/12 00:01:21;;;;;;;113.17;39.27;;;-1.50;99.90;;;;;;4393959;32;20228;-67
2021/12/12 00:03:53;;;;;;;130.20;39.50;;;-1.60;99.90;;;;;;4394261;32;20237;-67
2021/12/12 00:06:32;;;;;;;107.23;39.00;;;-1.60;99.90;;;;;;4393722;32;20252;-67
2021/12/12 00:09:31;;;;;;;114.53;39.87;;;-1.60;99.90;;;;;;4395467;32;20155;-67
2021/12/12 00:12:04;;;;;;;129.17;38.27;;;-1.60;99.90;;;;;;4394720;32;20157;-67
2021/12/12 00:14:34;;;;;;;117.93;39.07;;;-1.70;99.90;;;;;;4393587;32;20198;-67
2021/12/12 00:17:02;;;;;;;138.63;39.53;;;-1.80;99.90;;;;;;4393096;32;20211;-67
2021/12/12 00:19:32;;;;;;;110.07;38.37;;;-1.80;99.90;;;;;;4393325;32;20245;-67
2021/12/12 00:22:04;;;;;;;126.07;38.90;;;-1.80;99.90;;;;;;4393733;32;20179;-67
2021/12/12 00:24:31;;;;;;;136.90;40.97;;;-1.80;99.90;;;;;;4394331;32;20254;-67
2021/12/12 00:26:59;;;;;;;122.50;40.63;;;-1.80;99.90;;;;;;4394076;32;20198;-67
2021/12/12 00:29:27;;;;;;;130.70;42.67;;;-1.80;99.90;;;;;;4392997;32;20183;-67
2021/12/12 00:31:58;;;;;;;124.83;40.20;;;-1.80;99.90;;;;;;4394933;32;20167;-67
2021/12/12 00:34:35;;;;;;;167.80;43.23;;;-1.80;99.90;;;;;;4393289;32;20181;-67
2021/12/12 00:37:07;;;;;;;141.63;43.83;;;-1.80;99.90;;;;;;4393246;32;20269;-67
2021/12/12 00:39:38;;;;;;;190.73;41.90;;;-1.80;99.90;;;;;;4393753;32;20175;-67
2021/12/12 00:42:12;;;;;;;142.83;39.57;;;-2.00;99.90;;;;;;4393830;32;20191;-67
2021/12/12 00:44:43;;;;;;;121.20;38.57;;;-2.10;99.90;;;;;;4392727;32;20210;-67
2021/12/12 00:47:10;;;;;;;123.43;38.37;;;-2.20;99.90;;;;;;4394733;32;20550;-67
2021/12/12 00:49:40;;;;;;;121.77;39.43;;;-2.20;99.90;;;;;;4394208;32;20186;-67
2021/12/12 00:52:11;;;;;;;117.20;38.50;;;-2.10;99.90;;;;;;4394262;32;20392;-67
2021/12/12 00:54:40;;;;;;;148.73;40.03;;;-2.20;99.90;;;;;;4393742;32;20197;-67
2021/12/12 00:57:12;;;;;;;116.53;38.73;;;-2.20;99.90;;;;;;4392777;32;20178;-67
2021/12/12 00:59:41;;;;;;;255.27;42.93;;;-2.30;99.90;;;;;;4392787;32;20183;-67
2021/12/12 01:02:12;;;;;;;127.30;37.80;;;-2.40;99.90;;;;;;4393011;32;20179;-67
2021/12/12 01:04:43;;;;;;;113.77;38.00;;;-2.50;99.90;;;;;;4392772;32;20195;-67
2021/12/12 01:07:14;;;;;;;154.00;38.37;;;-2.40;99.90;;;;;;4393435;32;20270;-67
2021/12/12 01:09:55;;;;;;;107.80;36.87;;;-2.50;99.90;;;;;;4393230;32;20188;-67
2021/12/12 01:12:29;;;;;;;102.37;35.93;;;-2.50;99.90;;;;;;4393717;32;20221;-67
2021/12/12 01:15:01;;;;;;;111.60;36.70;;;-2.50;99.90;;;;;;4394339;32;20146;-67
2021/12/12 01:17:38;;;;;;;105.33;36.63;;;-2.50;99.90;;;;;;4392363;32;20174;-67
2021/12/12 01:20:15;;;;;;;114.70;36.40;;;-2.40;99.90;;;;;;4395475;32;20151;-67
2021/12/12 01:22:44;;;;;;;104.90;37.17;;;-2.40;99.90;;;;;;4394007;32;20147;-67
2021/12/12 01:25:20;;;;;;;162.80;37.10;;;-2.30;99.90;;;;;;4392995;32;20297;-68
2021/12/12 01:27:48;;;;;;;101.07;34.97;;;-2.60;99.90;;;;;;4393817;32;20205;-67
2021/12/12 01:30:16;;;;;;;117.30;36.93;;;-2.60;99.90;;;;;;4392044;32;20171;-67
2021/12/12 01:32:46;;;;;;;101.93;36.33;;;-2.50;99.90;;;;;;4393185;32;20461;-68
2021/12/12 01:35:17;;;;;;;104.70;35.50;;;-2.40;99.90;;;;;;4392826;32;20179;-67
2021/12/12 01:40:42;;;;;;;106.27;36.47;;;-2.20;99.90;;;;;;4392181;32;20172;-67
2021/12/12 01:43:16;;;;;;;105.13;36.90;;;-2.20;99.90;;;;;;4393375;32;20147;-67
2021/12/12 01:45:50;;;;;;;100.13;34.33;;;-2.10;99.90;;;;;;4393465;32;20179;-67
2021/12/12 01:48:27;;;;;;;98.50;33.83;;;-2.20;99.90;;;;;;4391762;32;20637;-67
2021/12/12 01:50:59;;;;;;;95.97;35.37;;;-2.30;99.90;;;;;;4393772;32;20228;-68
2021/12/12 01:53:29;;;;;;;104.37;36.20;;;-2.20;99.90;;;;;;4393740;32;20218;-67
2021/12/12 01:56:04;;;;;;;97.17;34.50;;;-2.10;99.90;;;;;;4392635;32;20183;-67
2021/12/12 01:58:33;;;;;;;93.27;34.67;;;-2.10;99.90;;;;;;4392590;32;20192;-67
2021/12/12 02:01:10;;;;;;;105.77;36.47;;;-2.10;99.90;;;;;;4392718;32;20183;-67
2021/12/12 02:03:44;;;;;;;114.47;34.40;;;-2.00;99.90;;;;;;4391586;32;20198;-67
2021/12/12 02:06:14;;;;;;;99.83;33.03;;;-2.20;99.90;;;;;;4394382;32;20190;-68
2021/12/12 02:08:43;;;;;;;126.57;32.87;;;-2.20;99.90;;;;;;4393153;32;20489;-67
2021/12/12 02:11:16;;;;;;;97.60;32.10;;;-2.40;99.90;;;;;;4393067;32;20183;-67
2021/12/12 02:13:49;;;;;;;90.57;32.47;;;-2.60;99.90;;;;;;4391320;32;20525;-67
2021/12/12 02:16:16;;;;;;;91.07;32.80;;;-2.70;99.90;;;;;;4391738;32;20267;-67
2021/12/12 02:18:48;;;;;;;88.23;32.70;;;-2.60;99.90;;;;;;4380021;32;20178;-67
2021/12/12 02:21:25;;;;;;;116.70;33.50;;;-2.60;99.90;;;;;;4391736;32;20172;-67
2021/12/12 02:35:08;;;;;;;101.33;32.27;;;-2.50;99.90;;;;;;4392390;32;20592;-67
2021/12/12 02:38:05;;;;;;;96.03;32.27;;;-2.50;99.90;;;;;;4392676;32;20191;-67
2021/12/12 02:40:39;;;;;;;90.57;32.10;;;-2.50;99.90;;;;;;4392853;32;20198;-67
2021/12/12 02:43:07;;;;;;;88.37;30.30;;;-2.60;99.90;;;;;;4393061;32;20172;-68
2021/12/12 02:45:36;;;;;;;89.37;30.97;;;-2.60;99.90;;;;;;4391956;32;20202;-68
2021/12/12 02:48:06;;;;;;;85.67;29.90;;;-2.60;99.90;;;;;;4392762;32;20264;-67
2021/12/12 02:50:45;;;;;;;81.50;29.40;;;-2.60;99.90;;;;;;4392610;32;20179;-67
2021/12/12 02:53:30;;;;;;;86.37;29.37;;;-2.50;99.90;;;;;;4392040;32;20183;-67
2021/12/12 02:56:05;;;;;;;87.27;29.93;;;-2.50;99.90;;;;;;4391641;32;20250;-67
2021/12/12 02:58:33;;;;;;;84.07;29.23;;;-2.50;99.90;;;;;;4392431;32;20206;-67
2021/12/12 03:01:15;;;;;;;87.97;31.40;;;-2.50;99.90;;;;;;4392023;32;20174;-67
2021/12/12 03:03:44;;;;;;;89.57;30.03;;;-2.40;99.90;;;;;;4392103;32;20175;-67
2021/12/12 03:06:16;;;;;;;91.10;32.20;;;-2.40;99.90;;;;;;4391779;32;20202;-67
2021/12/12 03:08:46;;;;;;;97.67;31.87;;;-2.40;99.90;;;;;;4391545;32;20171;-67
2021/12/12 03:11:14;;;;;;;111.80;33.50;;;-2.30;99.90;;;;;;4391672;32;20169;-67
2021/12/12 03:13:41;;;;;;;95.37;31.77;;;-2.20;99.90;;;;;;4391088;32;20215;-67
2021/12/12 03:16:10;;;;;;;95.43;31.77;;;-2.20;99.90;;;;;;4392776;32;20172;-67
2021/12/12 03:18:41;;;;;;;96.90;32.03;;;-2.30;99.90;;;;;;4391488;32;20175;-68
2021/12/12 03:21:30;;;;;;;87.23;30.50;;;-2.30;99.90;;;;;;4392762;32;20190;-67
2021/12/12 03:24:02;;;;;;;89.23;29.50;;;-2.30;99.90;;;;;;4391726;32;20237;-67
2021/12/12 03:26:29;;;;;;;91.73;29.63;;;-2.40;99.90;;;;;;4391307;32;20514;-67
2021/12/12 03:28:59;;;;;;;95.13;30.20;;;-2.60;99.90;;;;;;4392370;32;20195;-67
2021/12/12 03:31:38;;;;;;;91.47;29.33;;;-2.60;99.90;;;;;;4395776;32;20166;-68
2021/12/12 03:34:10;;;;;;;87.40;30.70;;;-2.50;99.90;;;;;;4394155;32;20517;-68
2021/12/12 03:36:37;;;;;;;94.00;30.97;;;-2.40;99.90;;;;;;4381516;32;20202;-67
2021/12/12 03:39:17;;;;;;;85.73;30.20;;;-2.30;99.90;;;;;;4396938;32;20350;-68
2021/12/12 03:41:44;;;;;;;76.37;28.10;;;-2.20;99.90;;;;;;4382311;32;20174;-68
2021/12/12 03:44:15;;;;;;;83.57;29.77;;;-2.10;99.90;;;;;;4394598;32;20191;-67
2021/12/12 03:46:45;;;;;;;84.97;30.63;;;-2.10;99.90;;;;;;4393453;32;20191;-67
2021/12/12 03:49:13;;;;;;;80.03;28.20;;;-2.00;99.90;;;;;;4381195;32;20187;-67
2021/12/12 03:51:42;;;;;;;77.27;27.87;;;-1.90;99.90;;;;;;4394563;32;20210;-68
2021/12/12 03:54:09;;;;;;;76.73;28.47;;;-1.80;99.90;;;;;;4394515;32;20183;-67
2021/12/12 03:56:38;;;;;;;79.50;27.60;;;-1.70;99.90;;;;;;4394448;32;20205;-68
2021/12/12 03:59:06;;;;;;;72.17;26.47;;;-1.60;99.90;;;;;;4395359;32;20270;-67
2021/12/12 04:01:40;;;;;;;70.33;26.17;;;-1.70;99.90;;;;;;4381673;32;20229;-67
2021/12/12 04:04:21;;;;;;;68.20;25.97;;;-1.80;99.90;;;;;;4396451;32;20173;-67
2021/12/12 04:06:49;;;;;;;71.00;26.37;;;-1.80;99.90;;;;;;4396412;32;20222;-67
2021/12/12 04:09:17;;;;;;;73.80;27.03;;;-1.70;99.90;;;;;;4394707;32;20179;-68
2021/12/12 04:11:53;;;;;;;66.57;25.90;;;-1.70;99.90;;;;;;4393640;32;20286;-68
2021/12/12 04:14:23;;;;;;;68.70;26.53;;;-1.60;99.90;;;;;;4394354;32;20163;-67
2021/12/12 04:16:54;;;;;;;70.93;25.37;;;-1.60;99.90;;;;;;4393180;32;20217;-67
2021/12/12 04:19:22;;;;;;;67.13;25.40;;;-1.50;99.90;;;;;;4393530;32;20203;-67
2021/12/12 04:21:50;;;;;;;70.13;25.77;;;-1.50;99.90;;;;;;4392942;32;20223;-67
2021/12/12 04:24:20;;;;;;;66.83;25.93;;;-1.40;99.90;;;;;;4393715;32;20182;-67
2021/12/12 04:26:48;;;;;;;65.10;24.77;;;-1.40;99.90;;;;;;4393941;32;20245;-67
2021/12/12 04:29:17;;;;;;;71.07;26.17;;;-1.40;99.90;;;;;;4394311;32;20207;-67
2021/12/12 04:31:49;;;;;;;75.33;26.57;;;-1.40;99.90;;;;;;4393255;32;20183;-67
2021/12/12 04:34:19;;;;;;;66.13;25.30;;;-1.30;99.90;;;;;;4393515;32;20194;-68
2021/12/12 04:36:47;;;;;;;65.67;25.67;;;-1.30;99.90;;;;;;4394706;32;20178;-67
2021/12/12 04:39:30;;;;;;;76.40;26.60;;;-1.30;99.90;;;;;;4394593;32;20480;-67
2021/12/12 04:42:03;;;;;;;73.93;25.63;;;-1.30;99.90;;;;;;4392688;32;20247;-67
2021/12/12 04:44:35;;;;;;;68.67;25.30;;;-1.40;99.90;;;;;;4393417;32;20198;-67
2021/12/12 04:50:06;;;;;;;76.63;25.93;;;-1.70;99.90;;;;;;4394291;32;20183;-68
2021/12/12 04:53:03;;;;;;;73.63;26.47;;;-1.60;99.90;;;;;;4394823;32;20154;-67
2021/12/12 04:55:44;;;;;;;79.20;26.13;;;-1.70;99.90;;;;;;4393687;32;20180;-68
2021/12/12 04:58:22;;;;;;;83.50;27.83;;;-1.80;99.90;;;;;;4392674;32;20188;-67
2021/12/12 05:01:01;;;;;;;80.13;26.70;;;-1.70;99.90;;;;;;4392516;32;20200;-67
2021/12/12 05:03:36;;;;;;;73.23;26.87;;;-1.70;99.90;;;;;;4393420;32;20213;-67
2021/12/12 05:06:10;;;;;;;86.37;27.90;;;-1.60;99.90;;;;;;4392671;32;20205;-68
2021/12/12 05:08:59;;;;;;;90.67;29.43;;;-1.50;99.90;;;;;;4395687;32;20139;-68
2021/12/12 05:11:51;;;;;;;88.03;28.07;;;-1.50;99.90;;;;;;4393462;32;20244;-68
2021/12/12 05:14:23;;;;;;;90.23;27.93;;;-1.50;99.90;;;;;;4393111;32;20174;-68
2021/12/12 05:17:13;;;;;;;99.03;29.90;;;-1.50;99.90;;;;;;4392615;32;20245;-67
2021/12/12 05:19:49;;;;;;;82.67;25.97;;;-1.60;99.90;;;;;;4393219;32;20246;-67
2021/12/12 05:22:20;;;;;;;81.30;25.57;;;-1.50;99.90;;;;;;4392114;32;20533;-67
2021/12/12 05:24:51;;;;;;;86.80;27.03;;;-1.50;99.90;;;;;;4392832;32;20224;-67
2021/12/12 05:27:22;;;;;;;77.80;26.73;;;-1.50;99.90;;;;;;4393469;32;20232;-67
2021/12/12 05:30:06;;;;;;;76.10;25.83;;;-1.50;99.90;;;;;;4393730;32;20169;-67
2021/12/12 05:32:34;;;;;;;76.17;24.53;;;-1.40;99.90;;;;;;4392470;32;20221;-67
2021/12/12 05:35:04;;;;;;;74.80;26.17;;;-1.40;99.90;;;;;;4392713;32;20333;-67
2021/12/12 05:37:32;;;;;;;78.33;26.77;;;-1.30;99.90;;;;;;4393684;32;20408;-68
2021/12/12 05:40:04;;;;;;;85.10;26.93;;;-1.20;99.90;;;;;;4393793;32;20179;-68
2021/12/12 05:42:32;;;;;;;88.33;26.93;;;-1.10;99.90;;;;;;4392676;32;20256;-68
2021/12/12 05:45:00;;;;;;;76.77;25.57;;;-1.10;99.90;;;;;;4393610;32;20225;-68
2021/12/12 05:47:28;;;;;;;82.60;25.93;;;-1.20;99.90;;;;;;4392312;32;20199;-67
2021/12/12 05:49:57;;;;;;;79.43;25.63;;;-1.20;99.90;;;;;;4392374;32;20183;-68
2021/12/12 05:52:24;;;;;;;77.70;25.70;;;-1.20;99.90;;;;;;4391325;32;20242;-67
2021/12/12 05:54:52;;;;;;;83.00;27.87;;;-1.10;99.90;;;;;;4392223;32;20573;-68
2021/12/12 05:57:25;;;;;;;83.37;26.63;;;-1.10;99.90;;;;;;4392294;32;20195;-68
2021/12/12 05:59:55;;;;;;;88.67;28.40;;;-1.10;99.90;;;;;;4393277;32;20444;-67
2021/12/12 06:02:25;;;;;;;80.60;27.63;;;-1.00;99.90;;;;;;4391546;32;20215;-68
2021/12/12 06:04:55;;;;;;;87.83;29.03;;;-1.00;99.90;;;;;;4391846;32;20500;-68
2021/12/12 06:07:24;;;;;;;90.87;26.50;;;-1.00;99.90;;;;;;4391908;32;20220;-68
2021/12/12 06:09:52;;;;;;;83.13;26.20;;;-1.10;99.90;;;;;;4394812;32;20280;-67
2021/12/12 06:12:21;;;;;;;80.33;27.43;;;-1.20;99.90;;;;;;4392196;32;20635;-68
2021/12/12 06:14:49;;;;;;;81.87;26.33;;;-1.10;99.90;;;;;;4393237;32;20213;-67
2021/12/12 06:17:18;;;;;;;89.33;27.97;;;-1.20;99.90;;;;;;4402201;32;20213;-68
2021/12/12 06:19:47;;;;;;;84.63;27.43;;;-1.20;99.90;;;;;;4391854;32;20193;-67
2021/12/12 06:22:14;;;;;;;81.90;26.00;;;-1.20;99.90;;;;;;4391698;32;20220;-68
2021/12/12 06:24:43;;;;;;;82.50;26.53;;;-1.20;99.90;;;;;;4393563;32;20163;-67
2021/12/12 06:27:15;;;;;;;80.00;26.47;;;-1.20;99.90;;;;;;4393324;32;20147;-68
2021/12/12 06:29:44;;;;;;;88.97;28.40;;;-1.20;99.90;;;;;;4379206;32;20575;-68
2021/12/12 06:32:12;;;;;;;80.17;27.10;;;-1.10;99.90;;;;;;4392115;32;20415;-67
2021/12/12 06:34:39;;;;;;;83.83;28.77;;;-1.20;99.90;;;;;;4379446;32;20478;-67
2021/12/12 06:37:07;;;;;;;78.33;27.37;;;-1.20;99.90;;;;;;4391796;32;20265;-68
2021/12/12 06:39:36;;;;;;;94.93;29.50;;;-1.10;99.90;;;;;;4391791;32;20615;-67
2021/12/12 06:42:05;;;;;;;85.00;28.20;;;-1.10;99.90;;;;;;4391618;32;20253;-67
2021/12/12 06:44:38;;;;;;;95.53;30.40;;;-1.20;99.90;;;;;;4393457;32;20459;-67
2021/12/12 06:47:12;;;;;;;91.67;28.43;;;-1.20;99.90;;;;;;4392918;32;20187;-67
2021/12/12 06:49:40;;;;;;;110.87;30.83;;;-1.40;99.90;;;;;;4392646;32;20485;-67
2021/12/12 06:52:09;;;;;;;94.47;30.07;;;-1.50;99.90;;;;;;4391643;32;20449;-68
2021/12/12 06:54:38;;;;;;;98.13;29.97;;;-1.50;99.90;;;;;;4392247;32;20193;-67
2021/12/12 06:57:09;;;;;;;95.90;30.00;;;-1.60;99.90;;;;;;4392823;32;20194;-68
2021/12/12 06:59:38;;;;;;;105.10;31.27;;;-1.50;99.90;;;;;;4391045;32;20176;-68
2021/12/12 07:02:08;;;;;;;113.40;32.30;;;-1.50;99.90;;;;;;4394409;32;20193;-67
2021/12/12 07:04:37;;;;;;;98.37;32.20;;;-1.50;99.90;;;;;;4394997;32;20151;-67
2021/12/12 07:07:07;;;;;;;115.97;34.20;;;-1.50;99.90;;;;;;4395337;32;20184;-67
2021/12/12 07:09:36;;;;;;;136.57;36.03;;;-1.50;99.90;;;;;;4394606;32;20179;-67
2021/12/12 07:12:07;;;;;;;126.23;34.47;;;-1.50;99.90;;;;;;4395138;32;20533;-67
2021/12/12 07:14:37;;;;;;;113.40;33.13;;;-1.60;99.90;;;;;;4394763;32;20170;-67
2021/12/12 07:17:06;;;;;;;129.07;34.50;;;-1.70;99.90;;;;;;4395654;32;20215;-67
2021/12/12 07:19:36;;;;;;;121.53;34.03;;;-1.60;99.90;;;;;;4394002;32;20236;-67
2021/12/12 07:22:04;;;;;;;100.20;34.67;;;-1.60;99.90;;;;;;4381864;32;20248;-67
2021/12/12 07:24:31;;;;;;;112.97;33.53;;;-1.60;99.90;;;;;;4394953;32;20183;-67
2021/12/12 07:26:59;;;;;;;97.20;31.63;;;-1.50;99.90;;;;;;4396240;32;20237;-67
2021/12/12 07:29:27;;;;;;;122.87;34.17;;;-1.60;99.90;;;;;;4395267;32;20147;-67
2021/12/12 07:31:56;;;;;;;107.60;33.63;;;-1.60;99.90;;;;;;4395094;32;20176;-67
2021/12/12 07:34:24;;;;;;;93.53;31.07;;;-1.60;99.90;;;;;;4381568;32;20209;-67
2021/12/12 07:37:02;;;;;;;98.47;33.60;;;-1.60;99.90;;;;;;4396186;32;20199;-67
2021/12/12 07:39:32;;;;;;;95.63;31.40;;;-1.50;99.90;;;;;;4394496;32;20454;-68
2021/12/12 07:42:02;;;;;;;107.37;32.53;;;-1.60;99.90;;;;;;4393897;32;20183;-67
2021/12/12 07:44:33;;;;;;;96.60;31.07;;;-1.60;99.90;;;;;;4395096;32;20171;-68
2021/12/12 07:47:00;;;;;;;94.33;32.20;;;-1.50;99.90;;;;;;4393918;32;20206;-67
2021/12/12 07:49:33;;;;;;;94.47;31.30;;;-1.50;99.90;;;;;;4394127;32;20204;-67
2021/12/12 07:52:03;;;;;;;112.07;33.37;;;-1.50;99.90;;;;;;4395305;32;20210;-67
2021/12/12 07:54:32;;;;;;;87.73;30.87;;;-1.50;99.90;;;;;;4393852;32;20280;-67
2021/12/12 07:57:00;;;;;;;123.93;33.57;;;-1.60;99.90;;;;;;4381999;32;20187;-68
2021/12/12 07:59:28;;;;;;;109.87;33.50;;;-1.60;99.90;;;;;;4393487;32;20171;-68
2021/12/12 08:01:56;;;;;;;110.47;34.17;;;-1.70;99.90;;;;;;4395237;32;20170;-68
2021/12/12 08:04:29;;;;;;;96.73;33.47;;;-1.70;99.90;;;;;;4393611;32;20248;-68
2021/12/12 08:07:00;;;;;;;105.43;33.50;;;-1.60;99.90;;;;;;4395723;32;20182;-67
2021/12/12 08:09:29;;;;;;;98.33;33.40;;;-1.50;99.90;;;;;;4381654;32;20613;-67
2021/12/12 08:11:57;;;;;;;113.63;36.03;;;-1.40;99.90;;;;;;4380694;32;20191;-67
2021/12/12 08:14:27;;;;;;;107.13;34.13;;;-1.50;99.90;;;;;;4392728;32;20187;-67
2021/12/12 08:16:56;;;;;;;108.87;34.23;;;-1.40;99.90;;;;;;4396193;32;20449;-68
2021/12/12 08:19:26;;;;;;;118.30;37.27;;;-1.40;99.90;;;;;;4400297;32;20225;-67
2021/12/12 08:21:59;;;;;;;112.70;34.67;;;-1.30;99.90;;;;;;4394091;32;20174;-67
2021/12/12 08:24:27;;;;;;;111.87;34.37;;;-1.40;99.90;;;;;;4392950;32;20186;-67
2021/12/12 08:26:54;;;;;;;105.80;35.17;;;-1.40;99.90;;;;;;4392906;32;20183;-67
2021/12/12 08:29:22;;;;;;;119.60;36.20;;;-1.40;99.90;;;;;;4392920;32;20238;-67
2021/12/12 08:31:49;;;;;;;132.93;39.43;;;-1.30;99.90;;;;;;4394043;32;20198;-67
2021/12/12 08:34:16;;;;;;;117.33;38.00;;;-1.20;99.90;;;;;;4392780;32;20191;-67
2021/12/12 08:36:48;;;;;;;148.07;43.77;;;-1.40;99.90;;;;;;4394620;32;20349;-67
2021/12/12 08:39:17;;;;;;;149.53;44.03;;;-1.40;99.90;;;;;;4394921;32;20144;-67
2021/12/12 08:41:47;;;;;;;160.00;45.00;;;-1.60;99.90;;;;;;4395542;32;20148;-67
2021/12/12 08:44:15;;;;;;;152.63;45.23;;;-1.60;99.90;;;;;;4393197;32;20426;-67
2021/12/12 08:46:46;;;;;;;163.53;47.37;;;-1.60;99.90;;;;;;4392611;32;20577;-67
2021/12/12 08:49:15;;;;;;;159.40;47.77;;;-1.60;99.90;;;;;;4394090;32;20237;-67
2021/12/12 08:51:50;;;;;;;162.47;46.70;;;-1.60;99.90;;;;;;4394153;32;20172;-67
2021/12/12 08:54:25;;;;;;;161.93;48.40;;;-1.60;99.90;;;;;;4394047;32;20180;-67
2021/12/12 08:57:09;;;;;;;183.03;50.70;;;-1.70;99.90;;;;;;4394399;32;20197;-68
2021/12/12 08:59:45;;;;;;;200.20;53.53;;;-1.70;99.90;;;;;;4393303;32;20401;-67
2021/12/12 09:02:15;;;;;;;216.73;57.60;;;-1.70;99.90;;;;;;4392726;32;20258;-67
2021/12/12 09:04:48;;;;;;;225.37;59.67;;;-1.70;99.90;;;;;;4395107;32;20150;-67
2021/12/12 09:07:28;;;;;;;233.43;64.63;;;-1.60;99.90;;;;;;4394275;32;20179;-68
2021/12/12 09:10:13;;;;;;;258.07;67.73;;;-1.70;99.90;;;;;;4393052;32;20175;-67
2021/12/12 09:12:56;;;;;;;252.77;68.40;;;-1.70;99.90;;;;;;4393820;32;20179;-66
2021/12/12 09:15:26;;;;;;;250.60;68.00;;;-1.70;99.90;;;;;;4393975;32;20403;-67
2021/12/12 09:18:07;;;;;;;252.07;67.87;;;-1.70;99.90;;;;;;4392915;32;20195;-67
2021/12/12 09:20:47;;;;;;;246.93;69.43;;;-1.70;99.90;;;;;;4393720;32;20194;-67
2021/12/12 09:23:21;;;;;;;251.83;69.87;;;-1.70;99.90;;;;;;4414510;32;20416;-68
2021/12/12 09:25:57;;;;;;;248.30;69.63;;;-1.70;99.90;;;;;;4423880;32;20570;-67
2021/12/12 09:28:48;;;;;;;235.87;65.83;;;-1.70;99.90;;;;;;4423851;32;20204;-69
2021/12/12 09:31:18;;;;;;;246.07;65.77;;;-1.70;99.90;;;;;;4422193;32;20471;-67
2021/12/12 09:33:53;;;;;;;227.17;64.93;;;-1.60;99.90;;;;;;4422955;32;20178;-68
2021/12/12 09:36:33;;;;;;;219.37;64.60;;;-1.60;99.90;;;;;;4422718;32;20220;-67
2021/12/12 09:39:13;;;;;;;228.60;63.43;;;-1.60;99.90;;;;;;4398558;32;20196;-68
2021/12/12 09:42:01;;;;;;;215.20;63.83;;;-1.70;99.90;;;;;;4407142;32;20190;-68
2021/12/12 09:44:55;;;;;;;203.40;61.47;;;-1.60;99.90;;;;;;4408887;32;20163;-68
2021/12/12 09:48:03;;;;;;;190.87;58.80;;;-1.60;99.90;;;;;;4408268;32;20541;-68
2021/12/12 09:54:15;;;;;;;187.13;57.10;;;-1.80;99.90;;;;;;4407881;32;20179;-67
2021/12/12 09:57:19;;;;;;;177.13;54.27;;;-1.80;99.90;;;;;;4408582;32;20194;-68
2021/12/12 09:59:58;;;;;;;172.73;52.17;;;-2.00;99.90;;;;;;4334405;33;20491;-68
2021/12/12 10:02:35;;;;;;;177.30;50.60;;;-2.00;99.90;;;;;;4346655;33;20361;-68
2021/12/12 10:05:14;;;;;;;172.60;49.53;;;-2.10;99.90;;;;;;4334783;33;20168;-67
2021/12/12 10:08:04;;;;;;;163.77;50.37;;;-2.30;99.90;;;;;;4333622;33;20693;-68
2021/12/12 10:10:33;;;;;;;172.37;51.27;;;-2.30;99.90;;;;;;4333649;33;20176;-67
2021/12/12 10:13:21;;;;;;;173.63;52.77;;;-2.10;99.90;;;;;;4334203;33;20507;-68
2021/12/12 10:15:54;;;;;;;169.43;51.97;;;-1.90;99.90;;;;;;4335130;33;20203;-68
2021/12/12 10:18:41;;;;;;;171.80;51.30;;;-1.60;99.90;;;;;;4335298;33;20184;-67
2021/12/12 10:21:13;;;;;;;174.03;52.40;;;-1.60;99.90;;;;;;4333981;33;20180;-68
2021/12/12 10:23:50;;;;;;;166.43;51.00;;;-1.60;99.90;;;;;;4334166;33;20241;-68
2021/12/12 10:26:33;;;;;;;173.47;51.47;;;-1.50;99.90;;;;;;4333975;33;20193;-68
2021/12/12 10:29:24;;;;;;;155.33;49.33;;;-1.50;99.90;;;;;;4333139;33;20452;-67
2021/12/12 10:32:01;;;;;;;154.10;47.53;;;-1.50;99.90;;;;;;4347115;33;20192;-68
2021/12/12 10:34:41;;;;;;;145.30;46.03;;;-1.60;99.90;;;;;;4334007;33;20198;-68
2021/12/12 10:37:16;;;;;;;138.80;42.80;;;-1.80;99.90;;;;;;4401030;32;20175;-68
2021/12/12 10:39:48;;;;;;;136.03;42.57;;;-2.00;99.90;;;;;;4407860;32;20225;-68
2021/12/12 10:42:28;;;;;;;147.10;44.83;;;-2.00;99.90;;;;;;4409462;32;20146;-68
2021/12/12 10:45:09;;;;;;;150.37;43.77;;;-1.90;99.90;;;;;;4407349;32;20183;-67
2021/12/12 10:47:58;;;;;;;149.53;43.53;;;-2.10;99.90;;;;;;4406168;32;20250;-67
2021/12/12 10:50:48;;;;;;;138.20;44.20;;;-2.10;99.90;;;;;;4407218;32;20179;-67
2021/12/12 10:53:55;;;;;;;138.00;43.47;;;-2.00;99.90;;;;;;4409135;32;20159;-67
2021/12/12 10:56:58;;;;;;;153.00;43.77;;;-1.90;99.90;;;;;;4333436;33;20195;-67
2021/12/12 10:59:32;;;;;;;148.83;44.73;;;-1.90;99.90;;;;;;4346634;33;20164;-67
2021/12/12 11:02:06;;;;;;;141.93;44.13;;;-1.90;99.90;;;;;;4333824;33;20556;-67
2021/12/12 11:04:39;;;;;;;155.40;45.93;;;-2.00;99.90;;;;;;4333652;33;20203;-67
2021/12/12 11:07:17;;;;;;;171.07;48.87;;;-1.80;99.90;;;;;;4333278;33;20538;-68
2021/12/12 11:10:09;;;;;;;147.70;44.63;;;-1.70;99.90;;;;;;4333226;33;20184;-68
2021/12/12 11:13:10;;;;;;;169.27;44.93;;;-1.80;99.90;;;;;;4333027;33;20211;-67
2021/12/12 11:16:01;;;;;;;152.77;45.30;;;-1.80;99.90;;;;;;4303348;33;20511;-67
2021/12/12 11:18:34;;;;;;;152.13;46.23;;;-1.80;99.90;;;;;;4289395;33;20236;-67
2021/12/12 11:21:13;;;;;;;160.57;48.00;;;-1.80;99.90;;;;;;4290711;33;20281;-68
2021/12/12 11:23:52;;;;;;;177.30;49.57;;;-1.80;99.90;;;;;;4290593;33;20236;-68
2021/12/12 11:26:40;;;;;;;162.83;48.20;;;-1.80;99.90;;;;;;4301779;33;20558;-68
2021/12/12 11:29:12;;;;;;;164.37;49.47;;;-1.80;99.90;;;;;;4290149;33;20185;-67
2021/12/12 11:31:52;;;;;;;179.70;50.50;;;-1.70;99.90;;;;;;4323383;33;20493;-68
2021/12/12 11:34:44;;;;;;;174.93;49.13;;;-1.60;99.90;;;;;;4347082;33;20534;-68
2021/12/12 11:37:24;;;;;;;171.87;48.37;;;-1.60;99.90;;;;;;4360438;33;20477;-68
2021/12/12 11:40:02;;;;;;;155.77;42.83;;;-1.50;99.90;;;;;;4348480;33;20522;-68
2021/12/12 11:42:46;;;;;;;155.50;45.37;;;-1.70;99.90;;;;;;4361915;33;20374;-68
2021/12/12 11:45:22;;;;;;;163.27;45.70;;;-1.70;99.90;;;;;;4361929;33;20172;-68
2021/12/12 11:48:01;;;;;;;159.17;46.27;;;-2.00;99.90;;;;;;4360154;33;20191;-68
2021/12/12 11:50:43;;;;;;;151.60;42.37;;;-2.20;99.90;;;;;;4367192;32;20413;-68
2021/12/12 11:53:23;;;;;;;178.87;47.17;;;-2.10;99.90;;;;;;4393728;32;20198;-67
2021/12/12 11:55:58;;;;;;;163.20;45.20;;;-2.00;99.90;;;;;;4393370;32;20546;-67
2021/12/12 11:58:44;;;;;;;175.30;45.83;;;-2.10;99.90;;;;;;4395284;32;20170;-67
2021/12/12 12:01:27;;;;;;;141.40;40.47;;;-2.00;99.90;;;;;;4394866;32;20233;-67
2021/12/12 12:04:13;;;;;;;151.27;42.70;;;-2.00;99.90;;;;;;4394797;32;20256;-68
2021/12/12 12:07:01;;;;;;;145.57;39.23;;;-2.00;99.90;;;;;;4394202;32;20176;-67
2021/12/12 12:10:09;;;;;;;134.40;38.00;;;-2.10;99.90;;;;;;4393251;32;20179;-67
2021/12/12 12:13:02;;;;;;;140.50;39.50;;;-2.20;99.90;;;;;;4395925;32;20563;-68
2021/12/12 12:15:47;;;;;;;142.97;39.77;;;-2.10;99.90;;;;;;4399410;32;20194;-67
2021/12/12 12:18:26;;;;;;;145.33;40.87;;;-1.90;99.90;;;;;;4393973;32;20610;-67
2021/12/12 12:21:28;;;;;;;140.97;41.47;;;-1.80;99.90;;;;;;4396013;32;20462;-68
2021/12/12 12:24:15;;;;;;;142.67;40.03;;;-1.70;99.90;;;;;;4393224;32;20239;-68
2021/12/12 12:27:02;;;;;;;138.77;39.43;;;-1.70;99.90;;;;;;4393586;32;20427;-68
2021/12/12 12:29:33;;;;;;;138.67;40.17;;;-1.60;99.90;;;;;;4392550;32;20458;-68
2021/12/12 12:32:48;;;;;;;143.03;39.50;;;-1.60;99.90;;;;;;4392619;32;20430;-68
2021/12/12 12:36:09;;;;;;;149.67;41.03;;;-1.70;99.90;;;;;;4320542;33;20189;-67
2021/12/12 12:39:09;;;;;;;133.40;39.10;;;-1.80;99.90;;;;;;4320035;33;20456;-67
2021/12/12 12:42:10;;;;;;;141.00;39.37;;;-1.80;99.90;;;;;;4320038;33;20313;-67
2021/12/12 12:45:10;;;;;;;149.07;40.43;;;-1.90;99.90;;;;;;4320091;33;20542;-67
2021/12/12 12:47:40;;;;;;;141.20;39.57;;;-1.80;99.90;;;;;;4321177;33;20185;-67
2021/12/12 12:50:38;;;;;;;159.33;42.87;;;-1.70;99.90;;;;;;4320797;33;20173;-67
2021/12/12 12:53:12;;;;;;;160.13;43.57;;;-1.70;99.90;;;;;;4334145;33;20169;-67
2021/12/12 12:56:09;;;;;;;159.07;43.60;;;-1.70;99.90;;;;;;4319646;33;20196;-67
2021/12/12 12:58:57;;;;;;;163.70;42.93;;;-1.70;99.90;;;;;;4333666;33;20368;-67
2021/12/12 13:01:38;;;;;;;153.33;43.47;;;-1.80;99.90;;;;;;4319161;33;20207;-66
2021/12/12 13:04:13;;;;;;;148.43;41.80;;;-1.80;99.90;;;;;;4321104;33;20218;-67
2021/12/12 13:07:10;;;;;;;155.13;44.87;;;-1.80;99.90;;;;;;4320338;33;20236;-67
2021/12/12 13:09:58;;;;;;;163.10;43.97;;;-1.80;99.90;;;;;;4320734;33;20186;-68
2021/12/12 13:12:35;;;;;;;171.33;43.77;;;-1.90;99.90;;;;;;4373438;32;20556;-67
2021/12/12 13:15:11;;;;;;;161.60;44.37;;;-2.00;99.90;;;;;;4394424;32;20182;-67
2021/12/12 13:17:57;;;;;;;164.30;45.50;;;-1.90;99.90;;;;;;4392007;32;20497;-67
2021/12/12 13:21:01;;;;;;;161.60;44.43;;;-1.80;99.90;;;;;;4393475;32;20443;-68
2021/12/12 13:23:53;;;;;;;169.53;44.00;;;-1.80;99.90;;;;;;4393716;32;20239;-68